createdAt,value
2023-05-12T00:00:56.251Z,100.00
2023-05-12T00:03:25.453Z,100.00
2023-05-12T00:05:54.679Z,100.00
2023-05-12T00:08:23.829Z,100.00
2023-05-12T00:10:54.337Z,100.00
2023-05-12T00:13:24.073Z,100.00
2023-05-12T00:15:55.431Z,100.00
2023-05-12T00:18:24.998Z,100.00
2023-05-12T00:20:55.163Z,100.00
2023-05-12T00:23:24.476Z,100.00
2023-05-12T00:25:54.884Z,100.00
2023-05-12T00:28:23.951Z,100.00
2023-05-12T00:30:53.178Z,100.00
2023-05-12T00:33:22.300Z,100.00
2023-05-12T00:35:51.350Z,100.00
2023-05-12T00:38:20.422Z,100.00
2023-05-12T00:40:49.577Z,100.00
2023-05-12T00:43:20.016Z,100.00
2023-05-12T00:45:49.567Z,100.00
2023-05-12T00:48:19.218Z,100.00
2023-05-12T00:50:48.460Z,100.00
2023-05-12T00:53:17.650Z,100.00
2023-05-12T00:55:47.459Z,100.00
2023-05-12T00:58:16.835Z,100.00
2023-05-12T01:00:47.410Z,100.00
2023-05-12T01:03:17.095Z,100.00
2023-05-12T01:05:50.608Z,100.00
2023-05-12T01:08:21.827Z,100.00
2023-05-12T01:10:51.128Z,100.00
2023-05-12T01:13:21.568Z,100.00
2023-05-12T01:15:54.901Z,100.00
2023-05-12T01:18:25.345Z,100.00
2023-05-12T01:20:56.362Z,100.00
2023-05-12T01:23:34.474Z,100.00
2023-05-12T01:26:07.746Z,100.00
2023-05-12T01:28:38.746Z,100.00
2023-05-12T01:31:09.516Z,100.00
2023-05-12T01:33:40.803Z,100.00
2023-05-12T01:36:10.436Z,100.00
2023-05-12T01:38:39.735Z,100.00
2023-05-12T01:41:11.327Z,100.00
2023-05-12T01:43:40.684Z,100.00
2023-05-12T01:46:10.878Z,100.00
2023-05-12T01:48:41.566Z,100.00
2023-05-12T01:51:11.481Z,100.00
2023-05-12T01:53:40.612Z,100.00
2023-05-12T01:56:11.047Z,100.00
2023-05-12T01:58:40.120Z,100.00
2023-05-12T02:01:09.247Z,100.00
2023-05-12T02:03:38.884Z,100.00
2023-05-12T02:06:13.486Z,100.00
2023-05-12T02:08:42.695Z,100.00
2023-05-12T02:11:13.222Z,100.00
2023-05-12T02:13:42.319Z,100.00
2023-05-12T02:16:11.604Z,100.00
2023-05-12T02:18:40.856Z,100.00
2023-05-12T02:21:10.033Z,100.00
2023-05-12T02:23:39.163Z,100.00
2023-05-12T02:26:08.285Z,100.00
2023-05-12T02:28:39.775Z,100.00
2023-05-12T02:31:08.984Z,100.00
2023-05-12T02:33:38.160Z,100.00
2023-05-12T02:36:08.317Z,100.00
2023-05-12T02:38:37.424Z,100.00
2023-05-12T02:41:06.734Z,100.00
2023-05-12T02:43:36.311Z,100.00
2023-05-12T02:46:07.412Z,100.00
2023-05-12T02:48:36.933Z,100.00
2023-05-12T02:51:06.544Z,100.00
2023-05-12T02:53:35.647Z,100.00
2023-05-12T02:56:04.868Z,100.00
2023-05-12T02:58:35.162Z,100.00
2023-05-12T03:01:10.763Z,100.00
2023-05-12T03:03:42.673Z,100.00
2023-05-12T03:06:12.161Z,100.00
2023-05-12T03:08:41.383Z,100.00
2023-05-12T03:11:10.578Z,100.00
2023-05-12T03:13:39.719Z,100.00
2023-05-12T03:16:09.560Z,100.00
2023-05-12T03:18:38.632Z,100.00
2023-05-12T03:21:09.853Z,100.00
2023-05-12T03:23:38.966Z,100.00
2023-05-12T03:26:08.079Z,100.00
2023-05-12T03:28:37.619Z,100.00
2023-05-12T03:31:06.945Z,100.00
2023-05-12T03:33:36.049Z,100.00
2023-05-12T03:36:05.797Z,100.00
2023-05-12T03:38:36.414Z,100.00
2023-05-12T03:41:06.192Z,100.00
2023-05-12T03:43:36.252Z,100.00
2023-05-12T03:46:06.032Z,100.00
2023-05-12T03:48:35.366Z,100.00
2023-05-12T03:51:04.891Z,100.00
2023-05-12T03:53:35.456Z,100.00
2023-05-12T03:56:08.035Z,100.00
2023-05-12T03:58:37.151Z,100.00
2023-05-12T04:01:07.134Z,100.00
2023-05-12T04:03:36.575Z,100.00
2023-05-12T04:06:06.203Z,100.00
2023-05-12T04:08:36.695Z,100.00
2023-05-12T04:11:05.904Z,100.00
2023-05-12T04:13:35.000Z,100.00
2023-05-12T04:16:04.386Z,100.00
2023-05-12T04:18:33.530Z,100.00
2023-05-12T04:21:02.646Z,100.00
2023-05-12T04:23:31.710Z,100.00
2023-05-12T04:26:05.112Z,100.00
2023-05-12T04:28:34.253Z,100.00
2023-05-12T04:31:06.397Z,100.00
2023-05-12T04:33:36.927Z,100.00
2023-05-12T04:36:07.477Z,100.00
2023-05-12T04:38:37.594Z,100.00
2023-05-12T04:41:08.101Z,100.00
2023-05-12T04:46:09.566Z,100.00
2023-05-12T04:48:41.896Z,100.00
2023-05-12T04:51:10.993Z,100.00
2023-05-12T04:53:40.052Z,100.00
2023-05-12T04:56:10.574Z,100.00
2023-05-12T04:58:41.090Z,100.00
2023-05-12T05:01:12.261Z,100.00
2023-05-12T05:03:42.055Z,100.00
2023-05-12T05:06:11.683Z,100.00
2023-05-12T05:08:41.721Z,100.00
2023-05-12T05:11:12.296Z,100.00
2023-05-12T05:13:41.527Z,100.00
2023-05-12T05:16:10.802Z,100.00
2023-05-12T05:18:42.498Z,100.00
2023-05-12T05:21:11.815Z,100.00
2023-05-12T05:23:41.689Z,100.00
2023-05-12T05:26:13.064Z,100.00
2023-05-12T05:28:42.439Z,100.00
2023-05-12T05:31:17.717Z,100.00
2023-05-12T05:33:46.912Z,100.00
2023-05-12T05:36:16.407Z,100.00
2023-05-12T05:38:45.537Z,100.00
2023-05-12T05:41:15.929Z,100.00
2023-05-12T05:43:45.117Z,100.00
2023-05-12T05:46:15.225Z,100.00
2023-05-12T05:48:44.427Z,100.00
2023-05-12T05:51:15.005Z,100.00
2023-05-12T05:53:44.270Z,100.00
2023-05-12T05:56:15.586Z,100.00
2023-05-12T05:58:44.785Z,100.00
2023-05-12T06:01:15.446Z,100.00
2023-05-12T06:03:45.145Z,100.00
2023-05-12T06:06:14.472Z,100.00
2023-05-12T06:08:43.873Z,100.00
2023-05-12T06:11:17.153Z,100.00
2023-05-12T06:13:46.918Z,100.00
2023-05-12T06:16:16.028Z,100.00
2023-05-12T06:18:45.201Z,100.00
2023-05-12T06:21:14.853Z,100.00
2023-05-12T06:23:43.990Z,100.00
2023-05-12T06:26:17.191Z,100.00
2023-05-12T06:28:46.422Z,100.00
2023-05-12T06:31:15.715Z,100.00
2023-05-12T06:33:44.933Z,100.00
2023-05-12T06:36:15.004Z,100.00
2023-05-12T06:38:44.161Z,100.00
2023-05-12T06:41:16.893Z,100.00
2023-05-12T06:43:46.120Z,100.00
2023-05-12T06:46:16.105Z,100.00
2023-05-12T06:48:45.281Z,100.00
2023-05-12T06:51:14.555Z,100.00
2023-05-12T06:53:43.619Z,100.00
2023-05-12T06:56:16.839Z,100.00
2023-05-12T06:58:47.975Z,100.00
2023-05-12T07:01:17.205Z,100.00
2023-05-12T07:03:46.456Z,100.00
2023-05-12T07:06:15.668Z,100.00
2023-05-12T07:08:44.831Z,100.00
2023-05-12T07:11:19.872Z,100.00
2023-05-12T07:13:51.374Z,100.00
2023-05-12T07:16:21.348Z,100.00
2023-05-12T07:18:50.519Z,100.00
2023-05-12T07:21:19.766Z,100.00
2023-05-12T07:23:48.877Z,100.00
2023-05-12T07:26:18.621Z,100.00
2023-05-12T07:28:49.174Z,100.00
2023-05-12T07:31:18.307Z,100.00
2023-05-12T07:33:47.473Z,100.00
2023-05-12T07:36:16.530Z,100.00
2023-05-12T07:38:45.667Z,100.00
2023-05-12T07:41:15.383Z,100.00
2023-05-12T07:43:44.503Z,100.00
2023-05-12T07:46:15.037Z,100.00
2023-05-12T07:48:44.154Z,100.00
2023-05-12T07:51:13.247Z,100.00
2023-05-12T07:53:42.329Z,100.00
2023-05-12T07:56:11.413Z,100.00
2023-05-12T07:58:40.480Z,100.00
2023-05-12T08:01:10.226Z,100.00
2023-05-12T08:03:41.096Z,100.00
2023-05-12T08:06:10.582Z,100.00
2023-05-12T08:08:39.654Z,100.00
2023-05-12T08:11:08.695Z,100.00
2023-05-12T08:13:38.520Z,100.00
2023-05-12T08:16:07.658Z,100.00
2023-05-12T08:18:36.839Z,100.00
2023-05-12T08:21:07.381Z,100.00
2023-05-12T08:23:37.658Z,100.00
2023-05-12T08:26:06.921Z,100.00
2023-05-12T08:28:36.039Z,100.00
2023-05-12T08:31:05.429Z,100.00
2023-05-12T08:33:36.626Z,100.00
2023-05-12T08:36:07.542Z,100.00
2023-05-12T08:38:36.696Z,100.00
2023-05-12T08:41:13.984Z,100.00
2023-05-12T08:43:46.113Z,100.00
2023-05-12T08:46:15.600Z,100.00
2023-05-12T08:48:48.117Z,98.33
2023-05-12T08:51:20.242Z,100.00
2023-05-12T08:53:51.095Z,97.64
2023-05-12T08:58:56.440Z,89.38
2023-05-12T09:01:27.007Z,88.82
2023-05-12T09:03:56.374Z,86.02
2023-05-12T09:06:27.028Z,89.83
2023-05-12T09:08:56.144Z,87.10
2023-05-12T09:11:25.385Z,84.26
2023-05-12T09:14:02.811Z,86.38
2023-05-12T09:16:34.058Z,93.29
2023-05-12T09:19:06.721Z,89.07
2023-05-12T09:21:37.596Z,84.73
2023-05-12T09:24:08.842Z,83.32
2023-05-12T09:26:48.116Z,84.59
2023-05-12T09:29:27.789Z,82.15
2023-05-12T09:31:59.500Z,89.46
2023-05-12T09:34:30.591Z,82.04
2023-05-12T09:37:03.529Z,79.51
2023-05-12T09:39:33.182Z,78.20
2023-05-12T09:42:02.504Z,81.66
2023-05-12T09:44:33.345Z,81.49
2023-05-12T09:47:08.047Z,82.87
2023-05-12T09:49:37.176Z,85.17
2023-05-12T09:52:07.957Z,82.64
2023-05-12T09:54:40.553Z,76.38
2023-05-12T09:57:12.487Z,69.45
2023-05-12T09:59:43.886Z,73.27
2023-05-12T10:02:16.378Z,77.58
2023-05-12T10:04:48.732Z,72.20
2023-05-12T10:07:23.945Z,77.25
2023-05-12T10:09:54.467Z,69.60
2023-05-12T10:12:24.035Z,79.98
2023-05-12T10:14:54.084Z,84.92
2023-05-12T10:17:24.296Z,75.02
2023-05-12T10:19:55.549Z,82.87
2023-05-12T10:22:27.684Z,82.53
2023-05-12T10:24:58.095Z,80.32
2023-05-12T10:27:27.906Z,78.49
2023-05-12T10:29:57.347Z,80.35
2023-05-12T10:32:27.019Z,91.92
2023-05-12T10:34:56.395Z,86.38
2023-05-12T10:37:29.908Z,82.85
2023-05-12T10:40:01.033Z,77.97
2023-05-12T10:42:37.978Z,71.23
2023-05-12T10:45:18.146Z,75.85
2023-05-12T10:47:48.115Z,78.40
2023-05-12T10:50:28.402Z,79.53
2023-05-12T10:52:59.084Z,75.74
2023-05-12T10:55:36.546Z,72.36
2023-05-12T10:58:08.587Z,74.69
2023-05-12T11:00:50.853Z,67.28
2023-05-12T11:03:27.164Z,59.14
2023-05-12T11:06:07.258Z,58.54
2023-05-12T11:08:39.785Z,63.92
2023-05-12T11:11:09.270Z,60.92
2023-05-12T11:13:38.621Z,64.94
2023-05-12T11:16:12.860Z,58.66
2023-05-12T11:18:42.116Z,59.25
2023-05-12T11:21:12.779Z,56.89
2023-05-12T11:23:43.179Z,49.83
2023-05-12T11:26:19.197Z,44.90
2023-05-12T11:28:48.269Z,47.93
2023-05-12T11:31:20.702Z,44.08
2023-05-12T11:33:58.543Z,45.87
2023-05-12T11:36:38.508Z,44.40
2023-05-12T11:39:13.866Z,40.95
2023-05-12T11:41:43.020Z,44.78
2023-05-12T11:44:16.707Z,48.06
2023-05-12T11:46:56.663Z,50.56
2023-05-12T11:49:25.918Z,43.91
2023-05-12T11:51:56.212Z,39.56
2023-05-12T11:54:28.770Z,48.72
2023-05-12T11:56:59.031Z,42.33
2023-05-12T11:59:29.766Z,41.70
2023-05-12T12:01:59.541Z,44.15
2023-05-12T12:04:36.351Z,39.35
2023-05-12T12:07:06.316Z,36.80
2023-05-12T12:09:38.240Z,38.78
2023-05-12T12:12:08.794Z,38.79
2023-05-12T12:14:41.334Z,37.29
2023-05-12T12:17:10.367Z,37.38
2023-05-12T12:19:39.585Z,37.03
2023-05-12T12:22:08.671Z,39.38
2023-05-12T12:24:39.065Z,42.95
2023-05-12T12:27:08.120Z,41.30
2023-05-12T12:29:37.201Z,39.73
2023-05-12T12:32:06.811Z,42.10
2023-05-12T12:34:36.336Z,41.96
2023-05-12T12:37:06.482Z,38.06
2023-05-12T12:39:35.661Z,44.94
2023-05-12T12:42:06.960Z,46.26
2023-05-12T12:44:36.108Z,42.45
2023-05-12T12:47:05.665Z,48.37
2023-05-12T12:49:34.789Z,47.05
2023-05-12T12:52:03.873Z,41.99
2023-05-12T12:54:33.132Z,44.49
2023-05-12T12:57:02.363Z,40.72
2023-05-12T12:59:33.079Z,38.94
2023-05-12T13:02:02.576Z,42.37
2023-05-12T13:04:31.883Z,39.71
2023-05-12T13:07:00.979Z,40.25
2023-05-12T13:09:30.121Z,38.99
2023-05-12T13:11:59.571Z,39.32
2023-05-12T13:14:28.807Z,37.57
2023-05-12T13:16:59.371Z,41.80
2023-05-12T13:19:28.500Z,38.99
2023-05-12T13:21:57.588Z,44.55
2023-05-12T13:24:26.743Z,44.61
2023-05-12T13:26:56.542Z,45.38
2023-05-12T13:29:25.709Z,48.35
2023-05-12T13:31:54.845Z,40.99
2023-05-12T13:34:25.785Z,44.88
2023-05-12T13:36:54.895Z,36.07
2023-05-12T13:39:23.964Z,43.41
2023-05-12T13:41:53.117Z,39.95
2023-05-12T13:44:22.229Z,42.96
2023-05-12T13:46:51.448Z,42.10
2023-05-12T13:49:20.737Z,41.20
2023-05-12T13:51:51.188Z,42.22
2023-05-12T13:54:20.292Z,42.93
2023-05-12T13:56:49.403Z,42.41
2023-05-12T13:59:18.521Z,42.68
2023-05-12T14:01:47.737Z,42.29
2023-05-12T14:04:16.953Z,42.43
2023-05-12T14:06:46.805Z,42.71
2023-05-12T14:09:17.509Z,41.24
2023-05-12T14:11:46.632Z,43.04
2023-05-12T14:14:15.747Z,48.34
2023-05-12T14:16:44.893Z,46.36
2023-05-12T14:19:14.151Z,45.83
2023-05-12T14:21:43.283Z,46.06
2023-05-12T14:24:12.342Z,52.96
2023-05-12T14:26:42.821Z,55.68
2023-05-12T14:29:11.958Z,58.87
2023-05-12T14:31:41.272Z,56.08
2023-05-12T14:34:11.784Z,48.64
2023-05-12T14:36:40.892Z,49.80
2023-05-12T14:39:10.029Z,52.17
2023-05-12T14:41:39.259Z,53.92
2023-05-12T14:44:09.670Z,64.30
2023-05-12T14:46:39.046Z,59.72
2023-05-12T14:49:11.084Z,56.00
2023-05-12T14:51:40.288Z,56.18
2023-05-12T14:54:18.413Z,59.04
2023-05-12T14:56:53.715Z,64.57
2023-05-12T14:59:24.172Z,57.46
2023-05-12T15:01:53.349Z,58.09
2023-05-12T15:04:22.543Z,59.27
2023-05-12T15:06:51.682Z,59.57
2023-05-12T15:09:20.908Z,60.83
2023-05-12T15:11:51.438Z,62.71
2023-05-12T15:14:20.571Z,61.79
2023-05-12T15:16:50.995Z,64.23
2023-05-12T15:19:21.346Z,67.82
2023-05-12T15:21:50.521Z,70.77
2023-05-12T15:24:19.607Z,69.37
2023-05-12T15:26:48.651Z,65.77
2023-05-12T15:29:17.731Z,66.29
2023-05-12T15:31:48.680Z,68.33
2023-05-12T15:34:19.228Z,66.57
2023-05-12T15:36:48.827Z,67.99
2023-05-12T15:39:17.946Z,67.86
2023-05-12T15:41:47.072Z,66.16
2023-05-12T15:44:16.729Z,67.76
2023-05-12T15:46:45.873Z,71.09
2023-05-12T15:49:14.941Z,71.63
2023-05-12T15:51:45.517Z,70.58
2023-05-12T15:54:14.608Z,69.23
2023-05-12T15:56:43.836Z,70.99
2023-05-12T15:59:13.033Z,69.47
2023-05-12T16:01:42.196Z,72.74
2023-05-12T16:04:11.277Z,73.01
2023-05-12T16:06:40.575Z,69.71
2023-05-12T16:09:11.064Z,69.48
2023-05-12T16:11:40.582Z,68.39
2023-05-12T16:14:09.831Z,71.98
2023-05-12T16:16:42.908Z,71.37
2023-05-12T16:19:12.085Z,72.80
2023-05-12T16:21:42.451Z,73.16
2023-05-12T16:24:13.155Z,72.16
2023-05-12T16:26:42.444Z,72.22
2023-05-12T16:29:11.613Z,76.25
2023-05-12T16:31:42.546Z,76.04
2023-05-12T16:34:11.754Z,74.68
2023-05-12T16:36:41.228Z,73.07
2023-05-12T16:39:10.895Z,74.78
2023-05-12T16:41:41.343Z,74.27
2023-05-12T16:44:10.417Z,74.99
2023-05-12T16:46:41.610Z,80.17
2023-05-12T16:49:10.916Z,77.88
2023-05-12T16:51:40.455Z,78.29
2023-05-12T16:54:09.944Z,79.03
2023-05-12T16:56:40.550Z,79.16
2023-05-12T16:59:09.709Z,81.22
2023-05-12T17:01:39.526Z,80.30
2023-05-12T17:04:11.714Z,76.53
2023-05-12T17:06:40.919Z,77.65
2023-05-12T17:09:10.186Z,79.49
2023-05-12T17:11:40.764Z,78.66
2023-05-12T17:14:10.128Z,82.18
2023-05-12T17:16:39.662Z,77.88
2023-05-12T17:21:41.389Z,78.04
2023-05-12T17:24:11.196Z,77.93
2023-05-12T17:26:41.843Z,79.35
2023-05-12T17:29:10.914Z,77.82
2023-05-12T17:31:40.377Z,76.21
2023-05-12T17:34:09.537Z,78.65
2023-05-12T17:36:38.609Z,78.96
2023-05-12T17:39:07.685Z,80.67
2023-05-12T17:41:36.744Z,81.39
2023-05-12T17:44:07.270Z,81.89
2023-05-12T17:46:36.389Z,82.20
2023-05-12T17:49:05.577Z,84.35
2023-05-12T17:51:35.402Z,86.00
2023-05-12T17:54:04.701Z,86.75
2023-05-12T17:56:33.974Z,88.37
2023-05-12T17:59:03.620Z,90.01
2023-05-12T18:01:34.279Z,91.78
2023-05-12T18:04:03.606Z,93.94
2023-05-12T18:06:33.136Z,95.04
2023-05-12T18:09:02.695Z,99.27
2023-05-12T18:11:31.817Z,100.00
2023-05-12T18:14:02.501Z,100.00
2023-05-12T18:16:33.617Z,100.00
2023-05-12T18:19:03.520Z,100.00
2023-05-12T18:21:32.741Z,100.00
2023-05-12T18:24:01.881Z,100.00
2023-05-12T18:26:31.573Z,100.00
2023-05-12T18:29:00.881Z,100.00
2023-05-12T18:31:30.372Z,100.00
2023-05-12T18:34:00.875Z,100.00
2023-05-12T18:36:30.085Z,100.00
2023-05-12T18:38:59.112Z,100.00
2023-05-12T18:41:28.441Z,100.00
2023-05-12T18:43:57.585Z,100.00
2023-05-12T18:46:26.757Z,100.00
2023-05-12T18:48:55.921Z,100.00
2023-05-12T18:51:26.517Z,100.00
2023-05-12T18:53:56.399Z,100.00
2023-05-12T18:56:25.616Z,100.00
2023-05-12T18:58:54.733Z,100.00
2023-05-12T19:01:24.306Z,100.00
2023-05-12T19:03:53.558Z,100.00
2023-05-12T19:06:22.615Z,100.00
2023-05-12T19:08:53.204Z,100.00
2023-05-12T19:11:22.457Z,100.00
2023-05-12T19:13:52.368Z,100.00
2023-05-12T19:16:23.629Z,100.00
2023-05-12T19:18:52.875Z,100.00
2023-05-12T19:21:22.093Z,100.00
2023-05-12T19:23:52.582Z,100.00
2023-05-12T19:26:21.711Z,100.00
2023-05-12T19:28:50.965Z,100.00
2023-05-12T19:31:20.171Z,100.00
2023-05-12T19:33:49.309Z,100.00
2023-05-12T19:36:18.472Z,100.00
2023-05-12T19:38:47.704Z,100.00
2023-05-12T19:41:18.214Z,100.00
2023-05-12T19:43:47.311Z,100.00
2023-05-12T19:46:16.615Z,100.00
2023-05-12T19:48:46.083Z,100.00
2023-05-12T19:51:15.357Z,100.00
2023-05-12T19:53:44.670Z,100.00
2023-05-12T19:56:13.738Z,100.00
2023-05-12T19:58:44.397Z,100.00
2023-05-12T20:01:13.480Z,100.00
2023-05-12T20:03:42.826Z,100.00
2023-05-12T20:06:12.403Z,100.00
2023-05-12T20:08:41.584Z,100.00
2023-05-12T20:11:10.854Z,100.00
2023-05-12T20:13:39.953Z,100.00
2023-05-12T20:16:10.944Z,100.00
2023-05-12T20:18:40.347Z,100.00
2023-05-12T20:21:09.465Z,100.00
2023-05-12T20:23:38.719Z,100.00
2023-05-12T20:26:09.946Z,100.00
2023-05-12T20:28:39.126Z,100.00
2023-05-12T20:31:10.032Z,100.00
2023-05-12T20:33:39.191Z,100.00
2023-05-12T20:36:08.831Z,100.00
2023-05-12T20:38:37.992Z,100.00
2023-05-12T20:41:07.700Z,100.00
2023-05-12T20:43:37.025Z,100.00
2023-05-12T20:46:06.603Z,100.00
2023-05-12T20:48:37.145Z,100.00
2023-05-12T20:51:12.912Z,100.00
2023-05-12T20:53:42.214Z,100.00
2023-05-12T20:56:12.938Z,100.00
2023-05-12T20:58:42.220Z,100.00
2023-05-12T21:01:11.372Z,100.00
2023-05-12T21:03:42.081Z,100.00
2023-05-12T21:06:12.094Z,100.00
2023-05-12T21:08:41.252Z,100.00
2023-05-12T21:11:17.286Z,100.00
2023-05-12T21:13:47.062Z,100.00
2023-05-12T21:16:16.362Z,100.00
2023-05-12T21:18:46.909Z,100.00
2023-05-12T21:21:16.167Z,100.00
2023-05-12T21:23:45.249Z,100.00
2023-05-12T21:26:14.424Z,100.00
2023-05-12T21:28:43.589Z,100.00
2023-05-12T21:31:12.731Z,100.00
2023-05-12T21:33:41.883Z,100.00
2023-05-12T21:36:12.469Z,100.00
2023-05-12T21:38:41.563Z,100.00
2023-05-12T21:41:10.649Z,100.00
2023-05-12T21:43:39.679Z,100.00
2023-05-12T21:46:09.061Z,100.00
2023-05-12T21:48:38.173Z,100.00
2023-05-12T21:51:07.437Z,100.00
2023-05-12T21:53:37.932Z,100.00
2023-05-12T21:56:07.944Z,100.00
2023-05-12T21:58:37.124Z,100.00
2023-05-12T22:01:06.269Z,100.00
2023-05-12T22:03:35.411Z,100.00
2023-05-12T22:06:04.751Z,100.00
2023-05-12T22:08:33.841Z,100.00
2023-05-12T22:11:04.654Z,100.00
2023-05-12T22:13:33.797Z,100.00
2023-05-12T22:16:03.403Z,100.00
2023-05-12T22:18:33.315Z,100.00
2023-05-12T22:21:02.475Z,100.00
2023-05-12T22:23:31.793Z,100.00
2023-05-12T22:26:01.672Z,100.00
2023-05-12T22:28:32.204Z,100.00
2023-05-12T22:31:01.437Z,100.00
2023-05-12T22:33:31.017Z,100.00
2023-05-12T22:36:00.761Z,100.00
2023-05-12T22:38:30.107Z,100.00
2023-05-12T22:40:59.227Z,100.00
2023-05-12T22:43:28.422Z,100.00
2023-05-12T22:45:58.935Z,100.00
2023-05-12T22:48:28.627Z,100.00
2023-05-12T22:50:58.596Z,100.00
2023-05-12T22:53:27.665Z,100.00
2023-05-12T22:55:56.725Z,100.00
2023-05-12T22:58:25.820Z,100.00
2023-05-12T23:00:54.951Z,100.00
2023-05-12T23:03:25.537Z,100.00
2023-05-12T23:05:54.719Z,100.00
2023-05-12T23:08:23.744Z,100.00
2023-05-12T23:10:52.819Z,100.00
2023-05-12T23:13:22.989Z,100.00
2023-05-12T23:15:52.049Z,100.00
2023-05-12T23:18:21.192Z,100.00
2023-05-12T23:20:51.667Z,100.00
2023-05-12T23:23:20.723Z,100.00
2023-05-12T23:25:50.625Z,100.00
2023-05-12T23:28:19.737Z,100.00
2023-05-12T23:30:48.765Z,100.00
2023-05-12T23:33:18.060Z,100.00
2023-05-12T23:35:47.301Z,100.00
2023-05-12T23:38:17.712Z,100.00
2023-05-12T23:40:47.045Z,100.00
2023-05-12T23:43:16.090Z,100.00
2023-05-12T23:45:46.137Z,100.00
2023-05-12T23:48:15.187Z,100.00
2023-05-12T23:50:44.311Z,100.00
2023-05-12T23:53:13.399Z,100.00
2023-05-12T23:55:43.876Z,100.00
2023-05-12T23:58:12.924Z,100.00
